Time;durP1;ratioP1;P1;durP2;ratioP2;P2;SDS_P1;SDS_P2;PMS_P1;PMS_P2;Temp;Humidity;BMP_temperature;BMP_pressure;BME280_temperature;BME280_humidity;BME280_pressure;Samples;Min_cycle;Max_cycle;Signal;HPM_P1;HPM_P2
2023/06/02 00:00:47;;;;;;;2.80;2.60;;;15.30;99.90;;;;;;5132803;27;20183;-65
2023/06/02 00:03:14;;;;;;;7.03;3.40;;;15.30;99.90;;;;;;5114107;27;20194;-65
2023/06/02 00:05:39;;;;;;;19.63;2.87;;;15.40;99.90;;;;;;5132719;27;20265;-65
2023/06/02 00:08:06;;;;;;;6.40;3.40;;;15.40;99.90;;;;;;5132356;27;20543;-64
2023/06/02 00:10:31;;;;;;;5.50;3.33;;;15.40;99.90;;;;;;5132582;27;20177;-64
2023/06/02 00:12:57;;;;;;;4.00;3.20;;;15.50;99.90;;;;;;5132286;27;20462;-65
2023/06/02 00:15:23;;;;;;;5.17;3.50;;;15.50;99.90;;;;;;5132510;27;20224;-65
2023/06/02 00:17:48;;;;;;;8.40;3.40;;;15.20;99.90;;;;;;5132268;27;20199;-65
2023/06/02 00:20:17;;;;;;;8.03;3.50;;;15.20;99.90;;;;;;5132160;27;20189;-64
2023/06/02 00:22:46;;;;;;;5.97;3.37;;;15.10;99.90;;;;;;5131783;27;20175;-65
2023/06/02 00:25:12;;;;;;;13.03;3.90;;;14.80;99.90;;;;;;5131551;27;20423;-65
2023/06/02 00:27:37;;;;;;;6.33;2.70;;;14.60;99.90;;;;;;5130415;27;20464;-65
2023/06/02 00:30:03;;;;;;;13.07;4.17;;;14.50;99.90;;;;;;5131402;27;20186;-65
2023/06/02 00:32:29;;;;;;;6.60;3.70;;;14.40;99.90;;;;;;5131235;27;20193;-65
2023/06/02 00:34:55;;;;;;;8.60;3.33;;;14.40;99.90;;;;;;5131221;27;20416;-65
2023/06/02 00:37:20;;;;;;;5.43;3.80;;;14.40;99.90;;;;;;5112830;27;20798;-65
2023/06/02 00:39:46;;;;;;;5.80;3.50;;;14.50;99.90;;;;;;5131224;27;20191;-65
2023/06/02 00:42:11;;;;;;;8.93;4.20;;;14.60;99.90;;;;;;5131011;27;20305;-65
2023/06/02 00:44:37;;;;;;;5.13;3.97;;;14.60;99.90;;;;;;5131191;27;20268;-66
2023/06/02 00:47:03;;;;;;;9.00;3.53;;;14.60;99.90;;;;;;5130939;27;20275;-65
2023/06/02 00:49:28;;;;;;;4.20;3.47;;;14.60;99.90;;;;;;5131015;27;20664;-66
2023/06/02 00:51:54;;;;;;;11.40;3.83;;;14.30;99.90;;;;;;5130951;27;20177;-65
2023/06/02 00:54:20;;;;;;;5.17;3.47;;;14.10;99.90;;;;;;5112240;27;20296;-65
2023/06/02 00:56:46;;;;;;;5.00;3.60;;;13.80;99.90;;;;;;5130902;27;20490;-65
2023/06/02 00:59:13;;;;;;;5.87;3.70;;;13.80;99.90;;;;;;5111888;27;20213;-66
2023/06/02 01:01:39;;;;;;;10.30;3.57;;;13.80;99.90;;;;;;5130609;27;20937;-65
2023/06/02 01:04:05;;;;;;;3.90;3.30;;;14.10;99.90;;;;;;5130752;27;20415;-65
2023/06/02 01:06:37;;;;;;;9.03;3.60;;;14.00;99.90;;;;;;5130490;27;20640;-65
2023/06/02 01:09:10;;;;;;;7.53;3.57;;;14.10;99.90;;;;;;5130453;27;20815;-65
2023/06/02 01:11:36;;;;;;;5.17;3.47;;;14.10;99.90;;;;;;5130450;27;20407;-65
2023/06/02 01:14:02;;;;;;;4.50;3.93;;;14.10;99.90;;;;;;5130535;27;20417;-65
2023/06/02 01:16:29;;;;;;;9.63;4.23;;;14.10;99.90;;;;;;5130390;27;20412;-65
2023/06/02 01:18:55;;;;;;;5.73;3.83;;;14.10;99.90;;;;;;5130277;27;20436;-66
2023/06/02 01:21:26;;;;;;;7.50;4.00;;;14.10;99.90;;;;;;5130343;27;20511;-66
2023/06/02 01:23:57;;;;;;;6.33;3.60;;;14.10;99.90;;;;;;5130390;27;20267;-65
2023/06/02 01:26:23;;;;;;;5.20;3.40;;;14.00;99.90;;;;;;5130275;27;20493;-65
2023/06/02 01:28:49;;;;;;;6.37;4.13;;;13.80;99.90;;;;;;5130039;27;20845;-65
2023/06/02 01:31:22;;;;;;;6.03;3.33;;;13.80;99.90;;;;;;5130086;27;20923;-65
2023/06/02 01:33:58;;;;;;;5.27;3.90;;;13.80;99.90;;;;;;5130165;27;20769;-65
2023/06/02 01:36:27;;;;;;;8.17;4.30;;;13.90;99.90;;;;;;5130155;27;20403;-65
2023/06/02 01:38:54;;;;;;;12.03;4.10;;;13.90;99.90;;;;;;5129790;27;20440;-65
2023/06/02 01:41:21;;;;;;;4.80;3.53;;;13.90;99.90;;;;;;5129765;27;20864;-65
2023/06/02 01:43:48;;;;;;;10.13;3.80;;;13.80;99.90;;;;;;5129937;27;20907;-65
2023/06/02 01:46:15;;;;;;;4.60;3.70;;;13.80;99.90;;;;;;5129888;27;20470;-65
2023/06/02 01:48:40;;;;;;;11.00;3.70;;;13.90;99.90;;;;;;5110995;27;20494;-66
2023/06/02 01:51:06;;;;;;;11.53;3.63;;;13.80;99.90;;;;;;5111177;27;20844;-65
2023/06/02 01:53:31;;;;;;;6.30;3.97;;;13.70;99.90;;;;;;5111322;27;20209;-66
2023/06/02 01:55:58;;;;;;;8.70;3.70;;;13.70;99.90;;;;;;5129806;27;20209;-65
2023/06/02 01:58:24;;;;;;;8.00;3.73;;;13.60;99.90;;;;;;5129890;27;20200;-65
2023/06/02 02:00:50;;;;;;;4.93;3.87;;;13.60;99.90;;;;;;5129647;27;20418;-65
2023/06/02 02:03:16;;;;;;;7.23;4.00;;;13.60;99.90;;;;;;5129379;27;20200;-65
2023/06/02 02:05:41;;;;;;;5.07;3.67;;;13.60;99.90;;;;;;5129474;27;20422;-65
2023/06/02 02:08:08;;;;;;;6.03;4.40;;;13.40;99.90;;;;;;5129410;27;20929;-65
2023/06/02 02:10:33;;;;;;;7.80;3.90;;;13.50;99.90;;;;;;5129856;27;20173;-66
2023/06/02 02:12:59;;;;;;;9.90;4.60;;;13.50;99.90;;;;;;5129542;27;20441;-66
2023/06/02 02:15:27;;;;;;;5.77;4.30;;;13.40;99.90;;;;;;5129459;27;20225;-65
2023/06/02 02:17:56;;;;;;;7.80;4.73;;;13.50;99.90;;;;;;5129334;27;20435;-65
2023/06/02 02:20:22;;;;;;;5.80;4.20;;;13.50;99.90;;;;;;5110893;28;20789;-65
2023/06/02 02:22:47;;;;;;;7.80;4.20;;;13.40;99.90;;;;;;5129659;28;20411;-65
2023/06/02 02:25:14;;;;;;;6.83;4.53;;;13.50;99.90;;;;;;5129856;28;20703;-65
2023/06/02 02:27:40;;;;;;;9.93;4.50;;;13.40;99.90;;;;;;5111125;28;20285;-65
2023/06/02 02:30:06;;;;;;;5.97;3.90;;;13.40;99.90;;;;;;5130281;28;20935;-65
2023/06/02 02:32:36;;;;;;;6.80;4.60;;;13.30;99.90;;;;;;5130086;27;20268;-65
2023/06/02 02:35:03;;;;;;;7.27;4.67;;;13.30;99.90;;;;;;5130098;28;20415;-64
2023/06/02 02:37:29;;;;;;;6.33;4.53;;;13.30;99.90;;;;;;5129937;27;20438;-65
2023/06/02 02:39:54;;;;;;;12.00;5.23;;;13.20;99.90;;;;;;5111570;28;20422;-66
2023/06/02 02:42:20;;;;;;;10.53;5.00;;;13.20;99.90;;;;;;5129810;28;20499;-64
2023/06/02 02:44:46;;;;;;;8.77;5.27;;;13.10;99.90;;;;;;5129848;28;20196;-65
2023/06/02 02:47:12;;;;;;;7.00;4.00;;;13.10;99.90;;;;;;5129433;27;20787;-65
2023/06/02 02:49:37;;;;;;;8.43;5.03;;;13.10;99.90;;;;;;5129257;28;20565;-65
2023/06/02 02:52:03;;;;;;;9.90;5.93;;;13.00;99.90;;;;;;5131466;27;20414;-65
2023/06/02 02:54:29;;;;;;;7.60;5.70;;;12.90;99.90;;;;;;5133537;27;20276;-66
2023/06/02 02:56:55;;;;;;;9.50;5.83;;;12.70;99.90;;;;;;5133258;27;20558;-65
2023/06/02 02:59:21;;;;;;;6.90;5.07;;;12.60;99.90;;;;;;5133109;27;20441;-65
2023/06/02 03:01:47;;;;;;;8.97;4.70;;;12.50;99.90;;;;;;5133048;27;20196;-65
2023/06/02 03:04:18;;;;;;;8.47;4.43;;;12.60;99.90;;;;;;5133030;27;20500;-65
2023/06/02 03:06:45;;;;;;;6.90;4.57;;;12.70;99.90;;;;;;5133001;27;20446;-65
2023/06/02 03:09:11;;;;;;;8.37;5.43;;;12.60;99.90;;;;;;5132735;27;20834;-65
2023/06/02 03:11:37;;;;;;;6.73;5.10;;;12.60;99.90;;;;;;5132881;27;20411;-65
2023/06/02 03:14:03;;;;;;;9.00;5.40;;;12.70;99.90;;;;;;5132849;27;20438;-65
2023/06/02 03:16:29;;;;;;;8.27;5.50;;;12.70;99.90;;;;;;5132811;27;20194;-66
2023/06/02 03:18:56;;;;;;;10.73;5.03;;;12.60;99.90;;;;;;5113901;27;20205;-65
2023/06/02 03:21:22;;;;;;;7.90;4.93;;;12.50;99.90;;;;;;5132758;27;20779;-65
2023/06/02 03:23:49;;;;;;;6.33;5.03;;;12.40;99.90;;;;;;5132657;27;20418;-65
2023/06/02 03:26:15;;;;;;;7.00;4.90;;;12.50;99.90;;;;;;5132688;27;20888;-65
2023/06/02 03:28:42;;;;;;;11.70;5.57;;;12.50;99.90;;;;;;5132495;27;20462;-65
2023/06/02 03:31:11;;;;;;;10.27;5.20;;;12.50;99.90;;;;;;5132410;27;20505;-65
2023/06/02 03:33:36;;;;;;;11.47;5.03;;;12.50;99.90;;;;;;5132366;27;20963;-65
2023/06/02 03:36:02;;;;;;;10.80;5.13;;;12.50;99.90;;;;;;5132714;27;20410;-65
2023/06/02 03:38:27;;;;;;;8.50;5.03;;;12.50;99.90;;;;;;5132388;27;20251;-66
2023/06/02 03:40:53;;;;;;;9.23;5.93;;;12.50;99.90;;;;;;5132634;27;20294;-65
2023/06/02 03:43:19;;;;;;;9.40;5.50;;;12.40;99.90;;;;;;5132295;27;20216;-65
2023/06/02 03:45:45;;;;;;;9.13;5.20;;;12.40;99.90;;;;;;5132250;27;20173;-65
2023/06/02 03:48:11;;;;;;;8.57;5.53;;;12.40;99.90;;;;;;5113552;27;20212;-65
2023/06/02 03:50:38;;;;;;;6.80;4.87;;;12.40;99.90;;;;;;5132041;27;20415;-65
2023/06/02 03:53:05;;;;;;;9.03;5.87;;;12.40;99.90;;;;;;5132253;27;20537;-65
2023/06/02 03:55:30;;;;;;;12.73;5.97;;;12.50;99.90;;;;;;5113358;27;20502;-65
2023/06/02 03:57:56;;;;;;;10.40;5.97;;;12.50;99.90;;;;;;5131930;27;20552;-65
2023/06/02 04:00:22;;;;;;;8.87;4.93;;;12.60;99.90;;;;;;5132006;27;20184;-65
2023/06/02 04:02:48;;;;;;;11.63;6.73;;;12.60;99.90;;;;;;5131875;27;20181;-65
2023/06/02 04:05:14;;;;;;;8.97;5.03;;;12.60;99.90;;;;;;5132028;27;20192;-64
2023/06/02 04:07:40;;;;;;;10.47;5.70;;;12.60;99.90;;;;;;5131594;27;20660;-65
2023/06/02 04:10:06;;;;;;;7.57;5.00;;;12.70;99.90;;;;;;5131775;27;20407;-65
2023/06/02 04:12:32;;;;;;;9.73;5.33;;;12.70;99.90;;;;;;5131827;27;20418;-66
2023/06/02 04:14:58;;;;;;;8.50;5.40;;;12.80;99.90;;;;;;5113170;27;20517;-65
2023/06/02 04:17:25;;;;;;;9.70;5.37;;;12.70;99.90;;;;;;5131685;27;20201;-65
2023/06/02 04:19:52;;;;;;;8.53;5.43;;;12.70;99.90;;;;;;5131585;27;21234;-65
2023/06/02 04:22:19;;;;;;;6.80;4.73;;;12.70;99.90;;;;;;5113662;27;20458;-63
2023/06/02 04:24:45;;;;;;;7.77;4.87;;;12.70;99.90;;;;;;5131605;27;20799;-65
2023/06/02 04:27:10;;;;;;;7.57;5.47;;;12.60;99.90;;;;;;5131410;27;20462;-65
2023/06/02 04:29:37;;;;;;;12.60;4.83;;;12.60;99.90;;;;;;5132069;27;20415;-64
2023/06/02 04:32:03;;;;;;;8.23;5.00;;;12.60;99.90;;;;;;5131969;27;20750;-65
2023/06/02 04:34:31;;;;;;;6.43;4.67;;;12.80;99.90;;;;;;5132224;27;20757;-65
2023/06/02 04:36:57;;;;;;;10.43;5.50;;;13.00;99.90;;;;;;5132067;27;20429;-65
2023/06/02 04:39:23;;;;;;;9.70;5.20;;;13.10;99.90;;;;;;5132036;27;20427;-65
2023/06/02 04:41:49;;;;;;;6.97;5.07;;;13.20;99.90;;;;;;5131859;27;20938;-64
2023/06/02 04:44:16;;;;;;;6.93;5.03;;;13.30;99.90;;;;;;5131987;27;20184;-65
2023/06/02 04:46:42;;;;;;;7.70;4.93;;;13.30;99.90;;;;;;5131878;27;20185;-65
2023/06/02 04:49:09;;;;;;;8.80;5.60;;;13.50;99.90;;;;;;5131776;27;20435;-65
2023/06/02 04:51:35;;;;;;;10.53;6.77;;;13.60;99.90;;;;;;5131883;27;20439;-65
2023/06/02 04:54:01;;;;;;;9.00;6.07;;;13.70;99.90;;;;;;5131837;27;20419;-65
2023/06/02 04:56:27;;;;;;;6.00;4.97;;;13.90;99.90;;;;;;5131769;27;20501;-65
2023/06/02 04:58:53;;;;;;;10.10;5.63;;;14.10;99.90;;;;;;5131765;27;20306;-68
2023/06/02 05:01:19;;;;;;;11.63;6.10;;;14.20;99.90;;;;;;5131674;27;20419;-65
2023/06/02 05:03:44;;;;;;;10.63;6.90;;;14.20;99.90;;;;;;5131464;27;20427;-65
2023/06/02 05:06:10;;;;;;;9.13;5.60;;;14.30;99.90;;;;;;5131401;27;20185;-65
2023/06/02 05:08:36;;;;;;;9.93;5.53;;;14.40;99.90;;;;;;5095448;27;20607;-66
2023/06/02 05:11:02;;;;;;;17.47;6.60;;;14.60;99.90;;;;;;5130988;27;20189;-65
2023/06/02 05:13:28;;;;;;;10.23;5.97;;;14.70;99.90;;;;;;5130505;27;20269;-66
2023/06/02 05:15:57;;;;;;;7.80;6.03;;;14.70;99.90;;;;;;5130677;27;20420;-64
2023/06/02 05:18:23;;;;;;;8.50;5.53;;;14.80;99.90;;;;;;5130456;27;20454;-66
2023/06/02 05:20:50;;;;;;;7.23;5.40;;;14.90;99.90;;;;;;5111773;27;20502;-65
2023/06/02 05:23:16;;;;;;;12.30;6.33;;;15.00;99.90;;;;;;5130245;27;20469;-64
2023/06/02 05:25:42;;;;;;;12.30;6.30;;;15.00;99.90;;;;;;5130307;27;20829;-65
2023/06/02 05:28:08;;;;;;;15.77;6.20;;;15.10;99.90;;;;;;5130130;27;20937;-67
2023/06/02 05:30:35;;;;;;;13.73;6.50;;;15.10;99.90;;;;;;5130439;27;20650;-67
2023/06/02 05:33:00;;;;;;;8.10;5.60;;;15.20;99.90;;;;;;5130112;27;20564;-65
2023/06/02 05:35:26;;;;;;;10.70;6.87;;;15.30;99.90;;;;;;5130400;27;20422;-66
2023/06/02 05:37:52;;;;;;;9.57;5.90;;;15.40;99.90;;;;;;5111645;27;20203;-65
2023/06/02 05:40:17;;;;;;;11.50;6.07;;;15.40;99.90;;;;;;5130278;27;20216;-66
2023/06/02 05:42:43;;;;;;;12.40;6.63;;;15.50;99.90;;;;;;5129938;27;20913;-66
2023/06/02 05:45:09;;;;;;;11.50;6.93;;;15.60;99.90;;;;;;5130227;27;20575;-66
2023/06/02 05:47:35;;;;;;;13.00;6.97;;;15.70;99.90;;;;;;5129854;27;20258;-66
2023/06/02 05:50:00;;;;;;;11.60;7.37;;;15.80;99.90;;;;;;5130091;27;20416;-65
2023/06/02 05:52:26;;;;;;;16.87;7.90;;;15.90;99.90;;;;;;5129879;27;20218;-65
2023/06/02 05:54:51;;;;;;;13.67;8.00;;;15.90;99.90;;;;;;5129727;27;20213;-65
2023/06/02 05:57:17;;;;;;;10.20;7.53;;;15.90;99.90;;;;;;5129947;27;20186;-66
2023/06/02 05:59:44;;;;;;;10.30;6.93;;;15.90;99.90;;;;;;5129924;27;20190;-65
2023/06/02 06:02:09;;;;;;;14.23;7.27;;;16.10;99.90;;;;;;5111486;27;20562;-66
2023/06/02 06:04:35;;;;;;;13.87;7.00;;;16.20;99.90;;;;;;5129764;27;20416;-65
2023/06/02 06:07:02;;;;;;;10.27;6.57;;;16.20;99.90;;;;;;5130094;27;20218;-66
2023/06/02 06:09:28;;;;;;;10.63;7.03;;;16.30;99.90;;;;;;5130255;27;20210;-66
2023/06/02 06:11:53;;;;;;;10.40;6.83;;;16.30;99.90;;;;;;5130067;27;20471;-65
2023/06/02 06:14:19;;;;;;;13.03;7.97;;;16.40;99.90;;;;;;5129906;27;20423;-64
2023/06/02 06:16:45;;;;;;;12.63;6.70;;;16.40;99.90;;;;;;5111329;28;20187;-65
2023/06/02 06:19:11;;;;;;;12.63;7.50;;;16.60;99.90;;;;;;5130375;27;20441;-66
2023/06/02 06:21:37;;;;;;;16.30;7.40;;;16.80;99.90;;;;;;5130259;27;20183;-65
2023/06/02 06:24:06;;;;;;;12.07;6.87;;;16.80;99.90;;;;;;5130393;28;20193;-65
2023/06/02 06:26:32;;;;;;;19.80;7.77;;;16.90;99.90;;;;;;5129417;27;20418;-65
2023/06/02 06:28:57;;;;;;;10.87;7.33;;;16.90;99.90;;;;;;5129807;27;20891;-65
2023/06/02 06:31:24;;;;;;;10.57;7.17;;;16.90;99.90;;;;;;5130028;28;20513;-65
2023/06/02 06:33:49;;;;;;;10.37;7.00;;;16.90;99.90;;;;;;5129972;28;20655;-65
2023/06/02 06:36:15;;;;;;;12.43;7.80;;;17.10;99.90;;;;;;5130094;28;20420;-66
2023/06/02 06:38:41;;;;;;;10.03;8.20;;;17.10;99.90;;;;;;5129924;27;20310;-65
2023/06/02 06:41:07;;;;;;;10.10;6.70;;;17.10;99.90;;;;;;5111224;28;20203;-66
2023/06/02 06:43:32;;;;;;;11.90;7.70;;;17.30;99.90;;;;;;5130154;28;20414;-65
2023/06/02 06:45:59;;;;;;;10.13;7.40;;;17.20;99.90;;;;;;5129763;28;20269;-64
2023/06/02 06:48:25;;;;;;;11.73;7.30;;;17.30;99.90;;;;;;5129707;27;20246;-64
2023/06/02 06:50:51;;;;;;;11.60;7.60;;;17.30;99.90;;;;;;5129425;27;20417;-66
2023/06/02 06:53:17;;;;;;;9.70;7.30;;;17.30;99.90;;;;;;5129263;28;20424;-64
2023/06/02 06:55:43;;;;;;;15.30;7.60;;;17.40;99.90;;;;;;5129151;27;20180;-65
2023/06/02 06:58:09;;;;;;;14.50;8.00;;;17.40;99.90;;;;;;5128985;27;20544;-65
2023/06/02 07:00:34;;;;;;;11.83;7.60;;;17.50;99.90;;;;;;5129221;28;20251;-65
2023/06/02 07:03:00;;;;;;;10.00;6.80;;;17.50;99.90;;;;;;5129276;28;20274;-66
2023/06/02 07:05:27;;;;;;;13.70;7.30;;;17.50;99.90;;;;;;5093691;28;20409;-65
2023/06/02 07:07:53;;;;;;;16.50;7.60;;;17.50;99.90;;;;;;5129062;27;20219;-66
2023/06/02 07:10:18;;;;;;;10.53;7.20;;;17.50;99.90;;;;;;5129025;28;20428;-65
2023/06/02 07:12:44;;;;;;;9.23;7.07;;;17.60;99.90;;;;;;5128963;27;20196;-65
2023/06/02 07:15:10;;;;;;;11.73;7.07;;;17.60;99.90;;;;;;5128998;28;20187;-66
2023/06/02 07:17:36;;;;;;;13.47;8.30;;;17.60;99.90;;;;;;5128994;27;20247;-66
2023/06/02 07:20:02;;;;;;;15.00;8.80;;;17.60;99.90;;;;;;5128784;27;20431;-66
2023/06/02 07:22:27;;;;;;;15.97;9.93;;;17.60;99.90;;;;;;5110785;28;20279;-66
2023/06/02 07:24:53;;;;;;;15.07;8.57;;;17.60;99.90;;;;;;5128824;28;20868;-66
2023/06/02 07:27:18;;;;;;;18.23;7.60;;;17.90;99.90;;;;;;5128826;27;20219;-65
2023/06/02 07:29:44;;;;;;;14.13;7.83;;;18.10;99.90;;;;;;5128869;28;20200;-66
2023/06/02 07:32:09;;;;;;;12.07;8.40;;;18.20;99.90;;;;;;5110177;28;20180;-66
2023/06/02 07:34:37;;;;;;;13.13;8.00;;;18.20;99.90;;;;;;5128895;28;20211;-65
2023/06/02 07:37:02;;;;;;;12.27;8.40;;;18.10;99.90;;;;;;5129735;27;20193;-65
2023/06/02 07:39:29;;;;;;;16.87;7.93;;;18.00;99.90;;;;;;5132329;27;20426;-66
2023/06/02 07:41:54;;;;;;;17.60;8.57;;;18.00;99.90;;;;;;5113672;27;20209;-66
2023/06/02 07:44:20;;;;;;;14.00;9.03;;;18.00;99.90;;;;;;5113475;27;20433;-65
2023/06/02 07:46:46;;;;;;;11.87;7.77;;;18.10;99.90;;;;;;5132038;27;20430;-66
2023/06/02 07:49:13;;;;;;;15.50;7.87;;;18.30;99.90;;;;;;5132170;27;20199;-66
2023/06/02 07:51:39;;;;;;;12.70;9.30;;;18.40;99.90;;;;;;5132665;27;20417;-66
2023/06/02 07:54:05;;;;;;;18.63;9.40;;;18.30;99.90;;;;;;5132344;27;20443;-65
2023/06/02 07:56:31;;;;;;;14.13;8.97;;;18.30;99.90;;;;;;5132167;27;20977;-66
2023/06/02 07:58:56;;;;;;;12.63;8.97;;;18.40;99.90;;;;;;5131828;27;20482;-66
2023/06/02 08:01:22;;;;;;;13.57;8.73;;;18.40;99.90;;;;;;5132047;27;20181;-65
2023/06/02 08:03:48;;;;;;;13.13;8.83;;;18.50;99.90;;;;;;5131935;27;20260;-65
2023/06/02 08:06:14;;;;;;;13.13;9.13;;;18.50;99.90;;;;;;5132146;27;20190;-65
2023/06/02 08:08:40;;;;;;;18.60;8.93;;;18.50;99.90;;;;;;5131647;27;20475;-65
2023/06/02 08:11:05;;;;;;;15.07;8.83;;;18.50;99.90;;;;;;5131931;27;20414;-65
2023/06/02 08:13:31;;;;;;;19.37;8.50;;;18.60;99.90;;;;;;5131817;27;20184;-65
2023/06/02 08:15:59;;;;;;;15.70;9.63;;;18.70;99.90;;;;;;5131744;27;20179;-65
2023/06/02 08:18:24;;;;;;;10.53;8.30;;;18.90;99.90;;;;;;5131614;27;20203;-66
2023/06/02 08:20:51;;;;;;;11.40;9.03;;;18.90;99.90;;;;;;5131782;27;20482;-66
2023/06/02 08:23:17;;;;;;;12.50;8.83;;;19.00;99.90;;;;;;5112678;27;20188;-65
2023/06/02 08:25:44;;;;;;;12.17;8.47;;;19.30;99.90;;;;;;5131565;27;20910;-65
2023/06/02 08:28:11;;;;;;;12.97;9.03;;;19.40;99.90;;;;;;5131291;27;20463;-66
2023/06/02 08:30:37;;;;;;;18.70;9.27;;;19.50;99.90;;;;;;5131345;27;20905;-66
2023/06/02 08:33:05;;;;;;;14.77;9.70;;;19.80;98.30;;;;;;5131359;27;20412;-66
2023/06/02 08:35:32;;;;;;;17.00;8.70;;;19.90;98.90;;;;;;5131195;27;20425;-66
2023/06/02 08:37:58;;;;;;;20.50;9.67;;;20.10;98.10;;;;;;5131269;27;20813;-66
2023/06/02 08:40:37;;;;;;;12.80;8.13;;;20.10;96.30;;;;;;5131225;27;20501;-66
2023/06/02 08:43:08;;;;;;;14.37;9.23;;;20.30;96.90;;;;;;5131466;27;20815;-66
2023/06/02 08:45:35;;;;;;;13.77;8.80;;;20.30;95.50;;;;;;5131134;27;20422;-66
2023/06/02 08:48:05;;;;;;;15.50;10.30;;;20.20;94.90;;;;;;5130828;27;20560;-66
2023/06/02 08:50:35;;;;;;;11.53;8.87;;;20.30;95.50;;;;;;5130250;27;21185;-65
2023/06/02 08:53:06;;;;;;;12.90;8.67;;;20.60;96.00;;;;;;5112320;27;20450;-66
2023/06/02 08:55:32;;;;;;;11.00;8.97;;;20.80;94.30;;;;;;5130991;27;20418;-66
2023/06/02 08:57:58;;;;;;;11.33;8.37;;;20.90;93.60;;;;;;5112279;27;20481;-66
2023/06/02 09:00:24;;;;;;;14.27;8.80;;;21.20;94.10;;;;;;5130960;27;20457;-66
2023/06/02 09:02:50;;;;;;;16.10;9.43;;;21.30;93.30;;;;;;5131118;27;20422;-66
2023/06/02 09:05:16;;;;;;;17.27;10.60;;;21.50;93.00;;;;;;5131303;27;20602;-65
2023/06/02 09:08:05;;;;;;;12.20;9.00;;;21.80;92.20;;;;;;5131004;27;20295;-66
2023/06/02 09:10:31;;;;;;;18.17;8.90;;;21.80;92.60;;;;;;5131046;27;20414;-66
2023/06/02 09:12:57;;;;;;;15.33;8.97;;;22.10;91.60;;;;;;5131119;27;20407;-66
2023/06/02 09:15:24;;;;;;;14.27;8.30;;;22.30;91.50;;;;;;5130728;27;21003;-66
2023/06/02 09:17:50;;;;;;;17.03;9.13;;;22.40;91.20;;;;;;5112564;27;20946;-66
2023/06/02 09:20:16;;;;;;;12.20;8.77;;;22.70;92.50;;;;;;5131288;27;20502;-65
2023/06/02 09:22:56;;;;;;;10.97;8.63;;;22.70;90.80;;;;;;5131272;27;20506;-66
2023/06/02 09:25:24;;;;;;;12.30;8.50;;;23.00;90.20;;;;;;5131353;27;20178;-65
2023/06/02 09:27:58;;;;;;;10.30;7.07;;;23.20;91.10;;;;;;5131066;27;20469;-66
2023/06/02 09:30:24;;;;;;;14.10;9.40;;;23.30;90.10;;;;;;5131480;27;20809;-66
2023/06/02 09:33:00;;;;;;;11.03;7.87;;;23.50;90.10;;;;;;5112666;27;20423;-66
2023/06/02 09:35:36;;;;;;;12.20;9.10;;;23.60;88.90;;;;;;5131104;27;20791;-66
2023/06/02 09:38:07;;;;;;;14.10;7.67;;;23.60;89.70;;;;;;5131017;27;20437;-66
2023/06/02 09:40:35;;;;;;;9.80;7.90;;;23.90;89.30;;;;;;5130796;27;20509;-66
2023/06/02 09:43:10;;;;;;;15.70;8.77;;;24.30;87.60;;;;;;5130488;27;20475;-66
2023/06/02 09:45:47;;;;;;;17.70;9.73;;;24.30;87.80;;;;;;5130635;27;20541;-64
2023/06/02 09:48:22;;;;;;;19.23;8.83;;;24.30;85.70;;;;;;5130091;27;20580;-65
2023/06/02 09:50:48;;;;;;;13.60;8.43;;;24.50;85.90;;;;;;5111620;27;20437;-65
2023/06/02 09:53:17;;;;;;;17.90;9.43;;;24.50;84.30;;;;;;5130163;27;21028;-66
2023/06/02 09:55:44;;;;;;;13.23;8.80;;;24.70;83.90;;;;;;5111368;27;20428;-66
2023/06/02 09:58:10;;;;;;;11.90;8.30;;;24.70;83.50;;;;;;5129898;27;20439;-66
2023/06/02 10:00:36;;;;;;;13.90;8.80;;;25.00;84.50;;;;;;5129883;27;20986;-66
2023/06/02 10:03:02;;;;;;;14.30;8.30;;;25.20;83.00;;;;;;5129809;27;20190;-66
2023/06/02 10:05:29;;;;;;;13.73;9.17;;;25.20;80.90;;;;;;5129865;27;20422;-66
2023/06/02 10:08:31;;;;;;;12.37;9.13;;;25.40;80.20;;;;;;5129706;27;20481;-65
2023/06/02 10:11:15;;;;;;;11.00;8.77;;;25.30;79.10;;;;;;5129926;27;20964;-66
2023/06/02 10:14:05;;;;;;;11.63;8.60;;;25.40;79.70;;;;;;5129841;27;21152;-66
2023/06/02 10:16:52;;;;;;;13.83;9.37;;;25.70;78.70;;;;;;5129848;27;20418;-66
2023/06/02 10:19:37;;;;;;;14.83;9.33;;;25.70;80.60;;;;;;5129988;27;20481;-75
2023/06/02 10:22:38;;;;;;;10.93;8.40;;;25.50;79.40;;;;;;5078354;27;20961;-73
2023/06/02 10:25:17;;;;;;;21.80;8.70;;;25.10;79.30;;;;;;5130404;27;20886;-74
2023/06/02 10:27:44;;;;;;;22.50;8.20;;;24.90;81.50;;;;;;5130223;27;20480;-73
2023/06/02 10:30:10;;;;;;;12.97;8.33;;;24.80;81.50;;;;;;5113107;28;20447;-67
2023/06/02 10:32:45;;;;;;;10.97;8.33;;;24.70;83.30;;;;;;5130009;28;20479;-70
2023/06/02 10:35:11;;;;;;;16.30;8.40;;;24.60;82.30;;;;;;5130485;27;20425;-71
2023/06/02 10:37:37;;;;;;;11.67;7.30;;;24.50;83.70;;;;;;5130601;27;21192;-67
2023/06/02 10:40:04;;;;;;;20.03;8.43;;;24.50;82.80;;;;;;5130736;28;20180;-70
2023/06/02 10:42:31;;;;;;;15.20;7.40;;;24.50;81.10;;;;;;5112064;28;20450;-69
2023/06/02 10:45:18;;;;;;;9.43;7.80;;;24.70;82.20;;;;;;5131029;27;20456;-71
2023/06/02 10:47:45;;;;;;;11.43;7.73;;;24.50;82.90;;;;;;5131799;27;20489;-72
2023/06/02 10:50:14;;;;;;;8.67;7.47;;;24.70;82.70;;;;;;5113389;28;20487;-67
2023/06/02 10:52:58;;;;;;;10.87;7.07;;;24.60;80.50;;;;;;5134612;27;20414;-70
2023/06/02 10:55:31;;;;;;;10.73;6.80;;;24.50;82.20;;;;;;5115975;28;20415;-72
2023/06/02 10:58:01;;;;;;;13.80;8.33;;;24.70;81.50;;;;;;5115048;28;20442;-71
2023/06/02 11:00:32;;;;;;;12.37;7.47;;;24.70;81.70;;;;;;5133872;27;20922;-68
2023/06/02 11:03:28;;;;;;;9.30;7.60;;;24.70;82.60;;;;;;5133426;28;20459;-73
2023/06/02 11:06:15;;;;;;;12.03;8.00;;;24.80;83.10;;;;;;5113848;28;20434;-72
2023/06/02 11:08:41;;;;;;;9.50;7.40;;;24.80;81.60;;;;;;5115009;28;20481;-72
2023/06/02 11:11:07;;;;;;;10.10;7.63;;;24.80;83.70;;;;;;5134596;28;20570;-74
2023/06/02 11:13:56;;;;;;;8.53;7.63;;;24.90;82.80;;;;;;5102172;27;20993;-71
2023/06/02 11:16:22;;;;;;;11.87;8.27;;;25.00;81.60;;;;;;5117937;27;20606;-73
2023/06/02 11:18:47;;;;;;;12.13;8.17;;;24.90;81.20;;;;;;5134427;27;20446;-74
2023/06/02 11:21:21;;;;;;;12.13;7.07;;;24.90;82.20;;;;;;5082496;27;20195;-73
2023/06/02 11:23:47;;;;;;;13.63;6.70;;;25.10;81.50;;;;;;5115645;27;20268;-70
2023/06/02 11:26:18;;;;;;;9.47;8.47;;;25.10;81.70;;;;;;5114424;27;20530;-70
2023/06/02 11:28:43;;;;;;;10.70;7.50;;;25.00;81.00;;;;;;5132523;27;20213;-70
2023/06/02 11:31:13;;;;;;;8.13;7.20;;;25.00;82.30;;;;;;5132717;27;20943;-71
2023/06/02 11:33:51;;;;;;;10.10;7.23;;;24.90;79.90;;;;;;5133015;27;20576;-70
2023/06/02 11:36:24;;;;;;;10.60;6.23;;;25.00;81.30;;;;;;5133208;27;20470;-69
2023/06/02 11:38:49;;;;;;;10.40;7.00;;;25.10;84.50;;;;;;5132997;27;20442;-70
2023/06/02 11:41:17;;;;;;;6.63;5.93;;;25.00;81.80;;;;;;5113201;27;20421;-70
2023/06/02 11:43:44;;;;;;;11.30;7.00;;;25.10;82.50;;;;;;5131838;27;20609;-69
2023/06/02 11:46:16;;;;;;;9.60;7.20;;;25.20;81.50;;;;;;5131750;27;20521;-70
2023/06/02 11:48:43;;;;;;;12.03;7.50;;;25.30;81.60;;;;;;5131546;27;20847;-70
2023/06/02 11:51:09;;;;;;;8.20;6.37;;;25.20;80.60;;;;;;5113130;27;20913;-70
2023/06/02 11:53:46;;;;;;;6.73;5.87;;;25.20;80.00;;;;;;5131600;27;20418;-69
2023/06/02 11:56:13;;;;;;;8.57;6.60;;;25.30;80.80;;;;;;5131578;27;20729;-70
2023/06/02 11:58:42;;;;;;;7.40;6.10;;;25.40;79.20;;;;;;5131408;27;20826;-68
2023/06/02 12:01:17;;;;;;;7.20;6.47;;;25.40;78.80;;;;;;5112613;27;20431;-70
2023/06/02 12:04:01;;;;;;;7.60;6.57;;;25.40;82.10;;;;;;5131161;27;20429;-69
2023/06/02 12:06:27;;;;;;;8.60;5.93;;;25.30;78.90;;;;;;5130966;27;20479;-70
2023/06/02 12:08:53;;;;;;;6.70;5.97;;;25.50;79.10;;;;;;5130404;27;20530;-70
2023/06/02 12:11:22;;;;;;;10.53;6.67;;;25.50;78.90;;;;;;5112128;27;20832;-71
2023/06/02 12:14:02;;;;;;;6.70;6.10;;;25.50;80.30;;;;;;5130633;27;20218;-70
2023/06/02 12:16:28;;;;;;;10.93;5.60;;;25.50;80.50;;;;;;5111721;27;20802;-70
2023/06/02 12:18:55;;;;;;;10.03;6.87;;;25.40;79.20;;;;;;5130351;27;20522;-69
2023/06/02 12:21:28;;;;;;;8.73;6.70;;;25.40;78.60;;;;;;5130201;27;21078;-70
2023/06/02 12:23:59;;;;;;;11.60;6.70;;;25.50;80.20;;;;;;5129058;27;20418;-72
2023/06/02 12:26:25;;;;;;;8.47;6.43;;;25.50;80.80;;;;;;5111608;27;20427;-70
2023/06/02 12:28:51;;;;;;;8.90;5.60;;;25.50;78.30;;;;;;5130050;27;20474;-70
2023/06/02 12:31:18;;;;;;;9.13;6.30;;;25.50;79.70;;;;;;5129961;27;20806;-70
2023/06/02 12:33:44;;;;;;;9.13;6.40;;;25.50;79.60;;;;;;5130053;27;20181;-70
2023/06/02 12:36:10;;;;;;;6.20;5.60;;;25.40;78.10;;;;;;5129942;27;20410;-70
2023/06/02 12:38:40;;;;;;;11.73;6.10;;;25.50;78.30;;;;;;5129785;27;20450;-70
2023/06/02 12:41:12;;;;;;;7.00;6.30;;;25.70;80.10;;;;;;5111222;27;20431;-70
2023/06/02 12:43:41;;;;;;;11.23;5.30;;;25.70;78.20;;;;;;5130332;27;20923;-69